createdAt,value
2023-04-27T00:01:51.754Z,73.62
2023-04-27T00:04:19.374Z,73.73
2023-04-27T00:06:46.240Z,73.70
2023-04-27T00:09:13.038Z,73.09
2023-04-27T00:11:39.631Z,72.84
2023-04-27T00:14:06.112Z,72.67
2023-04-27T00:16:32.667Z,72.91
2023-04-27T00:18:59.165Z,73.08
2023-04-27T00:21:25.622Z,73.38
2023-04-27T00:23:52.095Z,73.50
2023-04-27T00:26:18.562Z,71.32
2023-04-27T00:28:45.029Z,72.18
2023-04-27T00:31:11.643Z,72.43
2023-04-27T00:33:38.148Z,72.56
2023-04-27T00:36:04.979Z,71.99
2023-04-27T00:38:31.623Z,72.00
2023-04-27T00:41:05.677Z,72.71
2023-04-27T00:43:32.701Z,72.21
2023-04-27T00:46:00.687Z,72.02
2023-04-27T00:48:27.293Z,72.77
2023-04-27T00:50:53.932Z,72.74
2023-04-27T00:53:20.794Z,72.77
2023-04-27T00:55:47.582Z,71.94
2023-04-27T00:58:14.067Z,73.17
2023-04-27T01:00:40.956Z,72.74
2023-04-27T01:03:09.034Z,71.91
2023-04-27T01:05:49.083Z,72.76
2023-04-27T01:08:15.674Z,72.46
2023-04-27T01:10:42.418Z,72.54
2023-04-27T01:13:09.621Z,72.21
2023-04-27T01:15:36.213Z,72.21
2023-04-27T01:18:02.946Z,72.15
2023-04-27T01:20:30.489Z,72.90
2023-04-27T01:22:57.704Z,71.57
2023-04-27T01:25:24.797Z,73.14
2023-04-27T01:27:51.463Z,73.17
2023-04-27T01:30:17.938Z,73.61
2023-04-27T01:32:44.454Z,73.44
2023-04-27T01:35:11.317Z,72.82
2023-04-27T01:37:37.805Z,73.09
2023-04-27T01:40:06.621Z,73.55
2023-04-27T01:42:33.175Z,73.25
2023-04-27T01:45:00.577Z,73.20
2023-04-27T01:47:27.729Z,73.31
2023-04-27T01:49:54.235Z,73.50
2023-04-27T01:52:20.719Z,74.47
2023-04-27T01:54:47.185Z,74.05
2023-04-27T01:57:14.403Z,74.49
2023-04-27T01:59:40.921Z,74.77
2023-04-27T02:02:07.535Z,74.21
2023-04-27T02:04:36.563Z,74.36
2023-04-27T02:07:03.540Z,74.85
2023-04-27T02:09:30.067Z,75.51
2023-04-27T02:11:56.533Z,74.84
2023-04-27T02:14:22.988Z,75.22
2023-04-27T02:16:49.508Z,76.07
2023-04-27T02:19:16.330Z,75.69
2023-04-27T02:21:43.124Z,76.46
2023-04-27T02:24:10.078Z,76.01
2023-04-27T02:26:36.555Z,76.19
2023-04-27T02:29:03.930Z,76.11
2023-04-27T02:31:31.378Z,75.39
2023-04-27T02:33:57.849Z,76.48
2023-04-27T02:36:24.330Z,76.09
2023-04-27T02:38:50.852Z,74.82
2023-04-27T02:41:17.338Z,76.84
2023-04-27T02:43:43.900Z,74.88
2023-04-27T02:46:10.460Z,76.07
2023-04-27T02:48:36.973Z,75.74
2023-04-27T02:51:04.732Z,75.62
2023-04-27T02:53:31.272Z,76.50
2023-04-27T02:55:58.486Z,76.61
2023-04-27T02:58:25.112Z,76.58
2023-04-27T03:00:55.731Z,76.63
2023-04-27T03:03:23.139Z,75.46
2023-04-27T03:05:49.753Z,75.29
2023-04-27T03:08:16.329Z,75.80
2023-04-27T03:10:42.757Z,75.66
2023-04-27T03:13:09.261Z,75.94
2023-04-27T03:15:35.795Z,76.23
2023-04-27T03:18:02.413Z,76.02
2023-04-27T03:20:28.935Z,75.81
2023-04-27T03:22:55.491Z,76.79
2023-04-27T03:25:22.383Z,73.16
2023-04-27T03:27:48.915Z,75.86
2023-04-27T03:30:15.453Z,74.87
2023-04-27T03:32:42.102Z,76.09
2023-04-27T03:35:09.753Z,75.94
2023-04-27T03:37:36.333Z,75.25
2023-04-27T03:40:02.900Z,74.47
2023-04-27T03:42:29.638Z,75.19
2023-04-27T03:44:56.087Z,75.01
2023-04-27T03:47:22.864Z,73.10
2023-04-27T03:49:49.336Z,73.31
2023-04-27T03:52:15.821Z,73.44
2023-04-27T03:54:42.267Z,74.08
2023-04-27T03:57:09.128Z,72.86
2023-04-27T03:59:35.603Z,72.83
2023-04-27T04:02:03.930Z,73.30
2023-04-27T04:04:31.221Z,73.16
2023-04-27T04:06:59.105Z,74.06
2023-04-27T06:10:57.662Z,74.12
2023-04-27T06:50:43.965Z,71.14
2023-04-27T06:53:10.883Z,70.98
2023-04-27T06:55:37.392Z,69.59
2023-04-27T06:58:04.461Z,71.03
2023-04-27T07:00:31.772Z,69.58
2023-04-27T07:02:58.416Z,70.35
2023-04-27T07:05:24.992Z,69.84
2023-04-27T07:07:52.115Z,68.15
2023-04-27T07:10:18.775Z,70.72
2023-04-27T07:12:45.242Z,69.30
2023-04-27T07:15:11.730Z,69.47
2023-04-27T07:17:38.387Z,69.35
2023-04-27T07:20:06.448Z,68.55
2023-04-27T07:22:33.518Z,68.40
2023-04-27T07:25:00.164Z,65.62
2023-04-27T07:27:26.775Z,63.73
2023-04-27T07:29:53.440Z,62.31
2023-04-27T07:32:20.108Z,62.37
2023-04-27T07:34:53.736Z,62.59
2023-04-27T07:37:21.056Z,62.67
2023-04-27T07:39:48.889Z,61.21
2023-04-27T07:42:15.376Z,59.39
2023-04-27T07:44:42.536Z,58.59
2023-04-27T07:47:09.135Z,59.19
2023-04-27T07:49:36.368Z,60.69
2023-04-27T07:52:04.599Z,63.58
2023-04-27T07:54:31.467Z,65.83
2023-04-27T07:56:58.101Z,66.84
2023-04-27T07:59:24.588Z,65.51
2023-04-27T08:01:51.205Z,62.21
2023-04-27T08:04:18.145Z,59.58
2023-04-27T08:06:46.780Z,58.03
2023-04-27T08:09:14.170Z,58.10
2023-04-27T08:11:40.839Z,55.83
2023-04-27T08:14:13.418Z,55.34
2023-04-27T08:16:43.663Z,55.79
2023-04-27T08:19:11.052Z,56.05
2023-04-27T08:21:38.057Z,54.64
2023-04-27T08:24:07.641Z,54.34
2023-04-27T08:26:35.290Z,55.14
2023-04-27T08:29:11.774Z,54.31
2023-04-27T08:31:46.664Z,52.56
2023-04-27T08:34:13.352Z,52.48
2023-04-27T08:36:39.822Z,52.96
2023-04-27T08:39:07.762Z,51.41
2023-04-27T08:41:34.347Z,52.42
2023-04-27T08:44:00.828Z,52.98
2023-04-27T08:46:27.471Z,52.76
2023-04-27T08:48:54.659Z,52.11
2023-04-27T08:51:21.863Z,51.91
2023-04-27T08:53:52.340Z,53.74
2023-04-27T08:56:19.929Z,52.50
2023-04-27T08:58:46.547Z,51.94
2023-04-27T09:01:12.988Z,50.49
2023-04-27T09:03:39.752Z,49.42
2023-04-27T09:06:07.011Z,46.97
2023-04-27T09:08:47.440Z,47.76
2023-04-27T09:11:29.846Z,48.57
2023-04-27T09:13:56.851Z,46.45
2023-04-27T09:16:24.758Z,48.80
2023-04-27T09:18:51.394Z,48.76
2023-04-27T09:21:28.280Z,49.21
2023-04-27T09:23:55.952Z,50.61
2023-04-27T09:26:27.292Z,53.31
2023-04-27T09:28:58.659Z,52.02
2023-04-27T09:31:35.927Z,51.37
2023-04-27T09:34:02.935Z,49.94
2023-04-27T09:36:30.887Z,47.37
2023-04-27T09:38:58.065Z,45.56
2023-04-27T09:41:25.364Z,44.78
2023-04-27T09:43:52.862Z,44.57
2023-04-27T09:46:19.855Z,48.96
2023-04-27T09:48:46.828Z,51.75
2023-04-27T09:51:14.940Z,53.74
2023-04-27T09:53:48.350Z,53.40
2023-04-27T09:56:37.631Z,53.62
2023-04-27T09:59:32.382Z,53.30
2023-04-27T10:02:05.145Z,53.34
2023-04-27T10:05:01.716Z,52.25
2023-04-27T10:07:28.951Z,51.37
2023-04-27T10:10:01.495Z,51.25
2023-04-27T10:12:33.409Z,49.00
2023-04-27T10:15:12.589Z,49.25
2023-04-27T10:17:39.231Z,50.84
2023-04-27T10:20:09.810Z,50.46
2023-04-27T10:22:52.571Z,50.93
2023-04-27T10:25:22.558Z,46.97
2023-04-27T10:27:53.273Z,49.27
2023-04-27T10:30:20.785Z,50.78
2023-04-27T10:33:07.473Z,51.15
2023-04-27T10:35:38.864Z,48.04
2023-04-27T10:38:06.396Z,46.99
2023-04-27T10:40:34.651Z,47.87
2023-04-27T10:43:12.918Z,48.69
2023-04-27T10:45:40.096Z,49.32
2023-04-27T10:48:07.518Z,51.34
2023-04-27T10:50:34.381Z,51.87
2023-04-27T10:53:03.459Z,52.93
2023-04-27T10:55:31.185Z,53.73
2023-04-27T10:57:59.204Z,54.90
2023-04-27T11:00:43.964Z,58.76
2023-04-27T11:03:19.876Z,60.96
2023-04-27T11:05:48.094Z,60.13
2023-04-27T11:08:16.989Z,59.68
2023-04-27T11:10:46.282Z,56.87
2023-04-27T11:13:14.866Z,56.75
2023-04-27T11:15:47.805Z,55.45
2023-04-27T11:18:15.973Z,53.71
2023-04-27T11:20:44.055Z,52.00
2023-04-27T11:23:14.707Z,52.51
2023-04-27T11:25:41.142Z,54.04
2023-04-27T11:28:18.398Z,52.74
2023-04-27T11:30:44.996Z,54.53
2023-04-27T11:33:11.613Z,53.42
2023-04-27T11:35:39.447Z,53.50
2023-04-27T11:38:06.270Z,51.31
2023-04-27T11:40:35.847Z,48.72
2023-04-27T11:43:05.160Z,49.47
2023-04-27T11:45:32.069Z,50.29
2023-04-27T11:47:59.098Z,50.15
2023-04-27T11:50:26.739Z,50.29
2023-04-27T11:52:53.497Z,52.16
2023-04-27T11:55:24.523Z,52.43
2023-04-27T11:57:57.515Z,50.64
2023-04-27T12:00:24.376Z,51.79
2023-04-27T12:02:51.138Z,51.61
2023-04-27T12:05:18.202Z,50.76
2023-04-27T12:07:44.755Z,50.30
2023-04-27T12:10:11.830Z,50.73
2023-04-27T12:12:38.769Z,48.56
2023-04-27T12:15:06.381Z,49.60
2023-04-27T12:17:33.069Z,48.71
2023-04-27T12:19:59.621Z,49.37
2023-04-27T12:22:26.151Z,51.20
2023-04-27T12:24:52.732Z,52.39
2023-04-27T12:27:19.274Z,53.24
2023-04-27T12:29:45.947Z,54.68
2023-04-27T12:32:12.434Z,54.52
2023-04-27T12:34:39.637Z,55.15
2023-04-27T12:37:06.634Z,55.19
2023-04-27T12:39:33.091Z,55.19
2023-04-27T12:41:59.545Z,53.87
2023-04-27T12:44:26.961Z,54.96
2023-04-27T12:46:53.478Z,54.95
2023-04-27T12:49:19.967Z,54.37
2023-04-27T12:51:47.963Z,56.35
2023-04-27T12:54:14.710Z,56.92
2023-04-27T12:56:41.955Z,55.19
2023-04-27T12:59:08.863Z,55.70
2023-04-27T13:01:35.433Z,54.87
2023-04-27T13:04:06.666Z,54.61
2023-04-27T13:14:24.969Z,54.95
2023-04-27T13:17:03.623Z,54.54
2023-04-27T15:30:57.107Z,74.09
2023-04-27T15:33:31.649Z,72.88
2023-04-27T15:39:31.632Z,74.56
2023-04-27T15:47:58.248Z,72.71
2023-04-27T15:58:26.799Z,74.01
2023-04-27T16:01:30.065Z,71.56
2023-04-27T16:04:03.120Z,70.84
2023-04-27T16:06:41.718Z,70.19
2023-04-27T16:09:13.849Z,70.40
2023-04-27T17:06:04.611Z,62.37
2023-04-27T17:28:20.226Z,59.59
2023-04-27T17:38:01.121Z,59.25
2023-04-27T17:44:41.712Z,58.71
2023-04-27T18:02:01.689Z,61.69
2023-04-27T18:04:28.742Z,61.72
2023-04-27T18:06:56.388Z,61.81
2023-04-27T18:09:33.177Z,61.78
2023-04-27T18:12:00.200Z,61.84
2023-04-27T18:14:26.749Z,63.14
2023-04-27T18:16:53.276Z,63.40
2023-04-27T18:19:19.835Z,62.34
2023-04-27T18:21:46.535Z,62.53
2023-04-27T18:24:21.426Z,61.92
2023-04-27T18:26:47.942Z,62.12
2023-04-27T18:29:14.768Z,62.24
2023-04-27T18:31:41.582Z,62.39
2023-04-27T18:34:08.220Z,62.41
2023-04-27T18:36:34.736Z,62.88
2023-04-27T18:39:01.260Z,63.21
2023-04-27T18:41:27.793Z,64.56
2023-04-27T18:43:54.261Z,64.12
2023-04-27T18:46:21.056Z,63.89
2023-04-27T18:48:47.615Z,64.03
2023-04-27T18:51:14.102Z,64.86
2023-04-27T18:53:40.757Z,64.23
2023-04-27T18:56:08.868Z,63.81
2023-04-27T18:58:36.054Z,64.09
2023-04-27T19:01:02.659Z,64.27
2023-04-27T19:03:29.521Z,64.88
2023-04-27T19:05:56.456Z,64.85
2023-04-27T19:08:22.998Z,65.16
2023-04-27T19:10:51.496Z,65.34
2023-04-27T19:13:18.276Z,65.50
2023-04-27T19:15:44.830Z,65.29
2023-04-27T19:18:11.955Z,64.82
2023-04-27T19:20:39.630Z,65.15
2023-04-27T19:23:08.032Z,65.12
2023-04-27T19:25:34.723Z,65.47
2023-04-27T19:28:01.344Z,65.43
2023-04-27T19:30:27.920Z,65.56
2023-04-27T19:32:54.593Z,65.52
2023-04-27T19:35:23.660Z,65.70
2023-04-27T19:37:50.873Z,66.29
2023-04-27T19:40:18.117Z,66.19
2023-04-27T19:42:44.700Z,66.58
2023-04-27T19:45:11.449Z,66.26
2023-04-27T19:47:37.931Z,66.63
2023-04-27T19:50:05.043Z,66.99
2023-04-27T19:52:31.641Z,66.76
2023-04-27T19:54:58.300Z,66.79
2023-04-27T19:57:24.759Z,66.53
2023-04-27T19:59:51.321Z,66.62
2023-04-27T20:02:17.837Z,66.62
2023-04-27T20:04:44.543Z,66.02
2023-04-27T20:07:12.103Z,66.74
2023-04-27T20:09:38.593Z,67.63
2023-04-27T20:12:05.202Z,67.65
2023-04-27T20:14:35.057Z,67.71
2023-04-27T20:17:03.065Z,68.39
2023-04-27T20:19:30.100Z,67.95
2023-04-27T20:21:56.721Z,67.92
2023-04-27T20:24:23.412Z,67.46
2023-04-27T20:26:49.908Z,67.28
2023-04-27T20:29:16.376Z,67.48
2023-04-27T20:31:42.966Z,67.98
2023-04-27T20:34:09.458Z,68.04
2023-04-27T20:36:36.499Z,67.97
2023-04-27T20:39:04.324Z,67.73
2023-04-27T20:41:31.111Z,67.68
2023-04-27T20:43:58.595Z,68.28
2023-04-27T20:46:25.051Z,68.60
2023-04-27T20:48:51.633Z,68.31
2023-04-27T20:51:18.435Z,68.44
2023-04-27T20:53:44.900Z,68.52
2023-04-27T20:56:12.087Z,68.24
2023-04-27T20:58:38.552Z,68.76
2023-04-27T21:01:05.137Z,69.32
2023-04-27T21:03:31.823Z,68.87
2023-04-27T21:05:58.394Z,69.23
2023-04-27T21:08:25.011Z,68.84
2023-04-27T21:10:51.527Z,69.01
2023-04-27T21:13:17.986Z,69.07
2023-04-27T21:15:44.433Z,69.38
2023-04-27T21:18:19.153Z,69.55
2023-04-27T21:20:55.398Z,69.13
2023-04-27T21:23:21.833Z,69.11
2023-04-27T21:25:48.347Z,68.93
2023-04-27T21:28:14.828Z,68.74
2023-04-27T21:30:41.509Z,69.65
2023-04-27T21:33:08.061Z,70.25
2023-04-27T21:35:34.905Z,70.02
2023-04-27T21:38:01.835Z,69.44
2023-04-27T21:40:28.301Z,70.04
2023-04-27T21:42:55.211Z,69.34
2023-04-27T21:45:21.678Z,69.66
2023-04-27T21:47:48.211Z,70.68
2023-04-27T21:50:16.588Z,70.09
2023-04-27T21:52:43.360Z,69.97
2023-04-27T21:55:10.094Z,69.65
2023-04-27T21:57:36.876Z,69.65
2023-04-27T22:00:13.167Z,69.08
2023-04-27T22:02:42.443Z,69.05
2023-04-27T22:05:12.265Z,70.38
2023-04-27T22:07:38.969Z,70.85
2023-04-27T22:10:06.188Z,70.17
2023-04-27T22:12:33.433Z,70.11
2023-04-27T22:15:00.036Z,70.03
2023-04-27T22:17:26.626Z,69.85
2023-04-27T22:19:53.465Z,69.93
2023-04-27T22:22:19.943Z,71.07
2023-04-27T22:24:47.486Z,71.32
2023-04-27T22:27:13.988Z,71.93
2023-04-27T22:29:40.455Z,72.26
2023-04-27T22:32:07.522Z,71.93
2023-04-27T22:34:34.034Z,71.51
2023-04-27T22:37:00.641Z,71.54
2023-04-27T22:39:27.183Z,71.33
2023-04-27T22:41:53.733Z,71.66
2023-04-27T22:44:20.402Z,70.92
2023-04-27T22:46:46.945Z,71.20
2023-04-27T22:49:14.963Z,71.53
2023-04-27T22:51:41.456Z,71.04
2023-04-27T22:54:07.899Z,71.96
2023-04-27T22:56:34.371Z,70.73
2023-04-27T22:59:00.906Z,71.33
2023-04-27T23:01:27.390Z,71.42
2023-04-27T23:03:54.216Z,72.14
2023-04-27T23:06:21.205Z,72.15
2023-04-27T23:08:48.079Z,71.63
2023-04-27T23:11:15.492Z,72.41
2023-04-27T23:13:42.110Z,72.49
2023-04-27T23:16:09.972Z,71.93
2023-04-27T23:18:36.666Z,73.76
2023-04-27T23:21:03.303Z,75.06
2023-04-27T23:23:29.832Z,75.27
2023-04-27T23:25:56.289Z,74.90
2023-04-27T23:28:22.746Z,73.96
2023-04-27T23:30:54.369Z,73.24
2023-04-27T23:33:21.815Z,73.90
2023-04-27T23:35:48.343Z,73.88
2023-04-27T23:38:14.851Z,74.09
2023-04-27T23:40:41.347Z,74.43
2023-04-27T23:43:07.800Z,72.75
2023-04-27T23:45:34.272Z,72.27
2023-04-27T23:48:00.857Z,72.80
2023-04-27T23:50:27.326Z,72.65
2023-04-27T23:52:53.776Z,72.49
2023-04-27T23:55:20.429Z,72.88
2023-04-27T23:57:47.016Z,73.39
